createdAt,value
2018-06-03T00:00:24.513Z,17.90
2018-06-03T00:02:52.701Z,17.90
2018-06-03T00:05:20.892Z,17.90
2018-06-03T00:07:49.646Z,17.90
2018-06-03T00:10:17.853Z,17.70
2018-06-03T00:12:46.041Z,17.80
2018-06-03T00:15:14.241Z,17.90
2018-06-03T00:17:42.405Z,17.80
2018-06-03T00:20:10.580Z,17.60
2018-06-03T00:22:38.771Z,17.50
2018-06-03T00:25:06.922Z,17.50
2018-06-03T00:27:35.113Z,17.60
2018-06-03T00:30:03.397Z,17.60
2018-06-03T00:32:31.627Z,17.50
2018-06-03T00:34:59.861Z,17.40
2018-06-03T00:37:28.529Z,17.00
2018-06-03T00:39:57.401Z,17.00
2018-06-03T00:42:25.617Z,17.20
2018-06-03T00:44:53.821Z,17.40
2018-06-03T00:47:22.009Z,17.50
2018-06-03T00:49:50.169Z,17.40
2018-06-03T00:52:18.356Z,17.20
2018-06-03T00:54:46.513Z,17.00
2018-06-03T00:57:14.718Z,16.90
2018-06-03T00:59:42.894Z,16.80
2018-06-03T01:02:11.081Z,16.70
2018-06-03T01:04:39.333Z,16.50
2018-06-03T01:07:07.617Z,16.40
2018-06-03T01:09:35.877Z,16.40
2018-06-03T01:12:04.129Z,16.30
2018-06-03T01:14:32.329Z,16.20
2018-06-03T01:17:00.570Z,15.90
2018-06-03T01:19:28.849Z,15.80
2018-06-03T01:21:57.168Z,15.80
2018-06-03T01:24:25.408Z,15.90
2018-06-03T01:26:53.605Z,15.90
2018-06-03T01:29:21.801Z,15.90
2018-06-03T01:34:17.960Z,16.10
2018-06-03T01:39:14.126Z,16.50
2018-06-03T01:41:42.317Z,16.40
2018-06-03T01:44:10.474Z,16.40
2018-06-03T01:46:38.681Z,16.30
2018-06-03T01:49:06.816Z,16.30
2018-06-03T01:51:35.000Z,16.30
2018-06-03T01:54:03.202Z,16.40
2018-06-03T01:56:31.400Z,16.50
2018-06-03T01:58:59.637Z,16.50
2018-06-03T02:01:27.917Z,16.60
2018-06-03T02:03:56.410Z,16.50
2018-06-03T02:06:24.641Z,16.40
2018-06-03T02:08:56.308Z,16.50
2018-06-03T02:11:24.629Z,16.60
2018-06-03T02:13:52.849Z,16.60
2018-06-03T02:16:21.105Z,16.60
2018-06-03T02:18:49.305Z,16.50
2018-06-03T02:21:17.488Z,16.50
2018-06-03T02:23:45.715Z,16.30
2018-06-03T02:26:13.885Z,16.20
2018-06-03T02:28:42.053Z,16.10
2018-06-03T02:31:10.233Z,16.20
2018-06-03T02:33:38.438Z,16.00
2018-06-03T02:36:06.613Z,15.90
2018-06-03T02:38:34.760Z,15.90
2018-06-03T02:41:03.005Z,15.80
2018-06-03T02:43:31.197Z,15.60
2018-06-03T02:45:59.457Z,15.50
2018-06-03T02:48:27.733Z,15.50
2018-06-03T02:50:55.938Z,15.60
2018-06-03T02:53:24.134Z,15.80
2018-06-03T02:55:52.292Z,15.90
2018-06-03T02:58:20.481Z,16.00
2018-06-03T03:03:16.601Z,16.00
2018-06-03T03:05:44.820Z,16.00
2018-06-03T03:08:12.975Z,15.90
2018-06-03T03:10:41.161Z,15.90
2018-06-03T03:13:09.328Z,15.90
2018-06-03T03:15:37.505Z,15.90
2018-06-03T03:18:05.727Z,15.90
2018-06-03T03:20:33.893Z,15.80
2018-06-03T03:23:02.184Z,15.90
2018-06-03T03:25:30.422Z,15.80
2018-06-03T03:27:58.640Z,15.80
2018-06-03T03:30:27.011Z,15.80
2018-06-03T03:32:55.192Z,15.90
2018-06-03T03:35:23.460Z,15.90
2018-06-03T03:40:19.544Z,15.90
2018-06-03T03:42:47.745Z,15.70
2018-06-03T03:45:16.029Z,15.60
2018-06-03T03:47:44.226Z,15.40
2018-06-03T03:50:12.453Z,15.30
2018-06-03T03:52:40.598Z,15.10
2018-06-03T03:55:08.902Z,15.30
2018-06-03T03:57:37.058Z,15.30
2018-06-03T04:00:05.303Z,15.30
2018-06-03T04:02:33.497Z,15.40
2018-06-03T04:05:01.661Z,15.60
2018-06-03T04:07:29.961Z,15.60
2018-06-03T04:09:58.189Z,15.50
2018-06-03T04:12:26.612Z,15.40
2018-06-03T04:14:54.829Z,15.50
2018-06-03T04:17:23.057Z,15.60
2018-06-03T04:19:51.313Z,15.70
2018-06-03T04:22:19.520Z,15.80
2018-06-03T04:24:48.208Z,15.70
2018-06-03T04:27:16.649Z,15.60
2018-06-03T04:29:44.822Z,15.70
2018-06-03T04:32:13.006Z,15.60
2018-06-03T04:34:41.156Z,15.60
2018-06-03T04:37:09.340Z,15.70
2018-06-03T04:39:37.516Z,15.80
2018-06-03T04:42:05.677Z,15.90
2018-06-03T04:44:33.865Z,16.10
2018-06-03T04:47:02.024Z,16.20
2018-06-03T04:49:30.242Z,16.10
2018-06-03T04:51:58.508Z,16.10
2018-06-03T04:54:26.885Z,16.30
2018-06-03T04:56:55.116Z,16.40
2018-06-03T04:59:23.309Z,16.50
2018-06-03T05:01:51.496Z,16.80
2018-06-03T05:04:19.685Z,16.80
2018-06-03T05:06:47.832Z,16.70
2018-06-03T05:09:16.057Z,16.80
2018-06-03T05:11:44.231Z,16.90
2018-06-03T05:14:12.421Z,17.10
2018-06-03T05:16:40.604Z,17.30
2018-06-03T05:19:08.757Z,17.50
2018-06-03T05:21:36.943Z,17.80
2018-06-03T05:24:05.228Z,17.90
2018-06-03T05:26:33.488Z,18.30
2018-06-03T05:29:01.753Z,18.60
2018-06-03T05:31:30.049Z,18.70
2018-06-03T05:33:58.312Z,19.00
2018-06-03T05:36:26.533Z,19.20
2018-06-03T05:38:54.768Z,19.10
2018-06-03T05:41:22.973Z,18.80
2018-06-03T05:43:51.128Z,19.50
2018-06-03T05:46:19.330Z,20.00
2018-06-03T05:48:47.509Z,20.20
2018-06-03T05:51:15.721Z,20.50
2018-06-03T05:53:44.074Z,20.50
2018-06-03T05:56:12.225Z,20.50
2018-06-03T05:58:40.404Z,20.20
2018-06-03T06:01:08.593Z,20.60
2018-06-03T06:03:36.736Z,20.80
2018-06-03T06:06:04.916Z,21.00
2018-06-03T06:08:33.125Z,21.30
2018-06-03T06:11:01.349Z,21.40
2018-06-03T06:13:29.601Z,21.80
2018-06-03T06:15:57.814Z,21.90
2018-06-03T06:18:26.065Z,21.90
2018-06-03T06:20:54.234Z,22.20
2018-06-03T06:23:22.915Z,22.10
2018-06-03T06:25:51.112Z,22.00
2018-06-03T06:28:19.248Z,22.50
2018-06-03T06:30:47.488Z,23.20
2018-06-03T06:33:15.665Z,23.70
2018-06-03T06:35:43.930Z,24.00
2018-06-03T06:38:12.134Z,24.10
2018-06-03T06:40:40.383Z,24.10
2018-06-03T06:43:08.594Z,24.40
2018-06-03T06:45:36.753Z,24.00
2018-06-03T06:48:05.136Z,23.90
2018-06-03T06:50:33.322Z,24.00
2018-06-03T06:53:01.541Z,24.60
2018-06-03T06:55:29.785Z,24.80
2018-06-03T06:57:58.009Z,24.90
2018-06-03T07:00:26.285Z,24.90
2018-06-03T07:02:54.473Z,24.90
2018-06-03T07:05:22.637Z,25.10
2018-06-03T07:07:50.833Z,25.20
2018-06-03T07:10:19.006Z,24.70
2018-06-03T07:12:47.217Z,24.80
2018-06-03T07:15:15.447Z,24.50
2018-06-03T07:17:43.618Z,24.60
2018-06-03T07:20:11.805Z,25.00
2018-06-03T07:22:39.969Z,25.50
2018-06-03T07:25:08.161Z,25.60
2018-06-03T07:27:36.370Z,25.00
2018-06-03T07:30:04.569Z,25.10
2018-06-03T07:32:32.789Z,25.40
2018-06-03T07:35:00.968Z,25.50
2018-06-03T07:37:29.225Z,25.40
2018-06-03T07:39:57.491Z,25.50
2018-06-03T07:42:25.795Z,25.40
2018-06-03T07:44:54.021Z,25.60
2018-06-03T07:47:22.182Z,25.70
2018-06-03T07:49:50.377Z,25.70
2018-06-03T07:52:18.581Z,25.80
2018-06-03T07:54:46.855Z,25.70
2018-06-03T07:57:15.092Z,25.70
2018-06-03T07:59:43.253Z,25.70
2018-06-03T08:02:11.441Z,25.90
2018-06-03T08:04:39.637Z,26.10
2018-06-03T08:07:07.809Z,26.30
2018-06-03T08:09:36.113Z,26.20
2018-06-03T08:12:04.752Z,26.30
2018-06-03T08:14:32.955Z,26.10
2018-06-03T08:17:01.166Z,25.90
2018-06-03T08:19:29.383Z,25.80
2018-06-03T08:21:57.735Z,25.90
2018-06-03T08:24:26.033Z,26.10
2018-06-03T08:26:54.245Z,26.10
2018-06-03T08:29:22.473Z,25.90
2018-06-03T08:31:50.662Z,25.80
2018-06-03T08:34:18.849Z,25.90
2018-06-03T08:36:47.058Z,26.00
2018-06-03T08:39:15.316Z,26.20
2018-06-03T08:41:43.505Z,26.30
2018-06-03T08:44:11.698Z,26.20
2018-06-03T08:46:39.906Z,26.40
2018-06-03T08:49:08.173Z,26.60
2018-06-03T08:51:36.361Z,26.70
2018-06-03T08:54:04.593Z,26.90
2018-06-03T08:56:32.784Z,26.60
2018-06-03T08:59:01.044Z,26.50
2018-06-03T09:01:29.297Z,26.50
2018-06-03T09:03:57.599Z,26.80
2018-06-03T09:06:25.887Z,26.60
2018-06-03T09:08:54.061Z,26.50
2018-06-03T09:11:22.329Z,26.50
2018-06-03T09:13:50.493Z,26.40
2018-06-03T09:16:18.713Z,26.40
2018-06-03T09:18:47.102Z,26.40
2018-06-03T09:21:15.370Z,26.40
2018-06-03T09:23:43.648Z,26.30
2018-06-03T09:26:12.078Z,26.60
2018-06-03T09:28:40.306Z,27.00
2018-06-03T09:31:08.535Z,27.40
2018-06-03T09:33:36.703Z,27.60
2018-06-03T09:36:04.908Z,27.60
2018-06-03T09:41:01.165Z,28.10
2018-06-03T09:43:29.440Z,28.00
2018-06-03T09:45:57.812Z,28.00
2018-06-03T09:48:26.150Z,27.30
2018-06-03T09:50:54.396Z,27.30
2018-06-03T09:53:22.664Z,27.40
2018-06-03T09:55:50.858Z,27.80
2018-06-03T09:58:19.133Z,27.90
2018-06-03T10:00:47.396Z,28.20
2018-06-03T10:03:15.717Z,28.00
2018-06-03T10:05:43.975Z,27.40
2018-06-03T10:08:12.190Z,27.20
2018-06-03T10:10:40.419Z,27.10
2018-06-03T10:13:08.642Z,27.00
2018-06-03T10:15:36.813Z,27.40
2018-06-03T10:18:05.015Z,27.30
2018-06-03T10:20:33.229Z,27.20
2018-06-03T10:23:01.475Z,27.10
2018-06-03T10:25:29.814Z,27.10
2018-06-03T10:27:58.132Z,26.90
2018-06-03T10:30:26.466Z,26.90
2018-06-03T10:32:54.737Z,26.80
2018-06-03T10:35:22.927Z,26.80
2018-06-03T10:37:51.133Z,27.30
2018-06-03T10:40:19.307Z,27.80
2018-06-03T10:42:47.608Z,28.30
2018-06-03T10:45:15.881Z,28.70
2018-06-03T10:47:44.078Z,29.00
2018-06-03T10:50:12.290Z,28.80
2018-06-03T10:52:40.459Z,29.00
2018-06-03T10:55:08.687Z,29.30
2018-06-03T10:57:36.877Z,28.90
2018-06-03T11:00:05.386Z,28.90
2018-06-03T11:02:33.665Z,28.90
2018-06-03T11:05:02.116Z,29.30
2018-06-03T11:07:33.265Z,29.70
2018-06-03T11:10:01.529Z,30.30
2018-06-03T11:12:29.841Z,30.70
2018-06-03T11:14:58.145Z,30.80
2018-06-03T11:19:54.443Z,30.90
2018-06-03T11:22:22.617Z,30.80
2018-06-03T11:24:50.844Z,30.70
2018-06-03T11:27:19.058Z,30.20
2018-06-03T11:29:47.317Z,30.00
2018-06-03T11:32:15.715Z,29.10
2018-06-03T11:34:43.930Z,28.40
2018-06-03T11:37:12.153Z,27.60
2018-06-03T11:39:40.386Z,27.70
2018-06-03T11:42:08.566Z,28.00
2018-06-03T11:44:36.757Z,28.50
2018-06-03T11:47:04.998Z,28.30
2018-06-03T11:49:33.216Z,28.30
2018-06-03T11:52:01.479Z,28.40
2018-06-03T11:54:29.725Z,28.80
2018-06-03T11:57:02.995Z,28.80
2018-06-03T11:59:42.115Z,28.50
2018-06-03T12:02:11.014Z,28.60
2018-06-03T12:04:39.221Z,28.70
2018-06-03T12:07:07.436Z,28.50
2018-06-03T12:09:35.653Z,28.20
2018-06-03T12:12:03.868Z,28.30
2018-06-03T12:14:32.179Z,28.70
2018-06-03T12:17:00.417Z,29.00
2018-06-03T12:19:28.793Z,29.30
2018-06-03T12:21:57.135Z,29.70
2018-06-03T12:24:25.588Z,29.70
2018-06-03T12:26:53.865Z,29.80
2018-06-03T12:29:22.145Z,30.20
2018-06-03T12:31:50.388Z,30.60
2018-06-03T12:34:18.576Z,30.30
2018-06-03T12:36:46.847Z,30.30
2018-06-03T12:39:15.054Z,30.60
2018-06-03T12:41:43.278Z,30.90
2018-06-03T12:44:11.494Z,31.30
2018-06-03T12:46:39.681Z,31.60
2018-06-03T12:49:07.881Z,31.60
2018-06-03T12:51:36.561Z,31.40
2018-06-03T12:54:04.793Z,30.70
2018-06-03T12:56:33.088Z,30.60
2018-06-03T12:59:01.313Z,30.20
2018-06-03T13:01:29.707Z,30.00
2018-06-03T13:03:57.994Z,30.50
2018-06-03T13:06:26.369Z,31.10
2018-06-03T13:08:54.594Z,31.20
2018-06-03T13:11:22.805Z,31.30
2018-06-03T13:13:51.005Z,31.40
2018-06-03T13:16:19.186Z,31.10
2018-06-03T13:18:47.428Z,30.80
2018-06-03T13:21:15.680Z,30.50
2018-06-03T13:23:43.861Z,29.70
2018-06-03T13:26:12.137Z,29.20
2018-06-03T13:28:40.326Z,29.50
2018-06-03T13:31:08.565Z,29.70
2018-06-03T13:33:36.756Z,29.60
2018-06-03T13:36:05.421Z,29.30
2018-06-03T13:38:33.625Z,28.60
2018-06-03T13:41:01.833Z,28.30
2018-06-03T13:43:30.093Z,28.10
2018-06-03T13:45:58.421Z,28.00
2018-06-03T13:48:26.775Z,27.90
2018-06-03T13:50:55.024Z,28.10
2018-06-03T13:53:23.242Z,28.00
2018-06-03T13:55:51.456Z,28.00
2018-06-03T13:58:19.665Z,28.10
2018-06-03T14:00:47.857Z,28.40
2018-06-03T14:03:16.101Z,28.40
2018-06-03T14:05:44.310Z,28.10
2018-06-03T14:08:12.505Z,27.80
2018-06-03T14:10:40.767Z,27.30
2018-06-03T14:13:08.973Z,27.30
2018-06-03T14:15:37.177Z,27.50
2018-06-03T14:18:05.512Z,27.90
2018-06-03T14:20:33.713Z,27.90
2018-06-03T14:23:01.928Z,28.40
2018-06-03T14:25:30.292Z,28.90
2018-06-03T14:27:58.664Z,29.10
2018-06-03T14:30:27.049Z,28.70
2018-06-03T14:32:55.482Z,28.70
2018-06-03T14:35:23.790Z,28.50
2018-06-03T14:37:52.018Z,28.40
2018-06-03T14:40:20.277Z,28.30
2018-06-03T14:42:48.497Z,28.40
2018-06-03T14:45:16.775Z,28.70
2018-06-03T14:47:45.057Z,28.30
2018-06-03T14:50:13.221Z,28.50
2018-06-03T14:52:41.433Z,28.50
2018-06-03T14:55:09.590Z,28.30
2018-06-03T14:57:37.812Z,28.10
2018-06-03T15:00:06.031Z,28.10
2018-06-03T15:02:34.226Z,27.90
2018-06-03T15:05:02.465Z,27.70
2018-06-03T15:07:30.658Z,27.80
2018-06-03T15:09:58.979Z,27.90
2018-06-03T15:12:27.358Z,27.40
2018-06-03T15:14:55.710Z,27.50
2018-06-03T15:17:23.960Z,27.40
2018-06-03T15:19:52.154Z,27.20
2018-06-03T15:22:20.377Z,27.00
2018-06-03T15:24:48.636Z,27.30
2018-06-03T15:27:16.837Z,27.60
2018-06-03T15:29:45.091Z,27.60
2018-06-03T15:32:13.278Z,27.60
2018-06-03T15:34:41.485Z,27.80
2018-06-03T15:37:09.673Z,27.80
2018-06-03T15:39:37.869Z,28.00
2018-06-03T15:42:06.073Z,28.00
2018-06-03T15:44:34.242Z,27.90
2018-06-03T15:47:02.481Z,27.70
2018-06-03T15:49:30.744Z,27.70
2018-06-03T15:51:59.031Z,27.70
2018-06-03T15:54:27.367Z,27.60
2018-06-03T15:56:55.823Z,27.60
2018-06-03T15:59:24.024Z,27.50
2018-06-03T16:01:52.225Z,27.50
2018-06-03T16:04:20.413Z,27.50
2018-06-03T16:06:48.609Z,27.70
2018-06-03T16:09:16.813Z,27.70
2018-06-03T16:11:45.100Z,27.70
2018-06-03T16:14:13.313Z,27.40
2018-06-03T16:16:41.513Z,27.40
2018-06-03T16:19:09.735Z,27.40
2018-06-03T16:21:37.937Z,27.40
2018-06-03T16:24:06.151Z,27.50
2018-06-03T16:26:34.382Z,27.60
2018-06-03T16:29:02.589Z,27.60
2018-06-03T16:31:30.925Z,27.80
2018-06-03T16:33:59.192Z,27.70
2018-06-03T16:36:27.617Z,27.40
2018-06-03T16:38:56.016Z,27.00
2018-06-03T16:41:24.275Z,26.90
2018-06-03T16:43:52.602Z,26.60
2018-06-03T16:46:20.796Z,26.50
2018-06-03T16:48:49.034Z,26.40
2018-06-03T16:51:17.285Z,26.50
2018-06-03T16:53:45.513Z,26.60
2018-06-03T16:56:13.725Z,26.70
2018-06-03T16:58:41.904Z,26.80
2018-06-03T17:01:10.097Z,26.70
2018-06-03T17:03:38.306Z,26.70
2018-06-03T17:06:06.488Z,26.70
2018-06-03T17:08:34.711Z,26.50
2018-06-03T17:11:02.937Z,26.40
2018-06-03T17:13:31.202Z,26.40
2018-06-03T17:15:59.527Z,26.30
2018-06-03T17:18:27.872Z,26.30
2018-06-03T17:20:56.771Z,26.10
2018-06-03T17:23:25.029Z,26.10
2018-06-03T17:25:53.258Z,26.00
2018-06-03T17:28:21.459Z,25.90
2018-06-03T17:30:49.639Z,26.00
2018-06-03T17:33:17.865Z,26.00
2018-06-03T17:35:46.201Z,26.00
2018-06-03T17:38:14.430Z,26.00
2018-06-03T17:40:42.667Z,26.00
2018-06-03T17:43:11.177Z,26.00
2018-06-03T17:45:39.401Z,26.10
2018-06-03T17:48:07.611Z,26.10
2018-06-03T17:50:35.919Z,26.00
2018-06-03T17:55:32.091Z,26.00
2018-06-03T17:58:00.370Z,25.80
2018-06-03T18:00:31.447Z,25.80
2018-06-03T18:02:59.795Z,25.70
2018-06-03T18:05:28.154Z,25.60
2018-06-03T18:07:56.619Z,25.60
2018-06-03T18:10:24.902Z,25.60
2018-06-03T18:12:53.413Z,25.50
2018-06-03T18:15:21.609Z,25.40
2018-06-03T18:17:49.831Z,25.20
2018-06-03T18:20:18.104Z,25.20
2018-06-03T18:22:46.473Z,25.10
2018-06-03T18:25:15.777Z,25.10
2018-06-03T18:27:44.014Z,25.00
2018-06-03T18:30:13.298Z,25.00
2018-06-03T18:32:41.617Z,25.00
2018-06-03T18:35:09.922Z,24.90
2018-06-03T18:37:38.152Z,24.90
2018-06-03T18:40:06.582Z,24.80
2018-06-03T18:42:34.881Z,24.70
2018-06-03T18:47:31.081Z,24.60
2018-06-03T18:49:59.372Z,24.50
2018-06-03T18:52:27.982Z,24.50
2018-06-03T18:54:57.243Z,24.40
2018-06-03T18:57:25.470Z,24.30
2018-06-03T18:59:53.684Z,24.30
2018-06-03T19:02:23.008Z,24.30
2018-06-03T19:04:52.337Z,24.10
2018-06-03T19:07:20.545Z,24.00
2018-06-03T19:09:48.726Z,23.90
2018-06-03T19:12:17.048Z,23.80
2018-06-03T19:14:46.243Z,23.70
2018-06-03T19:17:14.473Z,23.60
2018-06-03T19:19:43.041Z,23.50
2018-06-03T19:22:12.010Z,23.50
2018-06-03T19:24:40.233Z,23.40
2018-06-03T19:27:08.606Z,23.40
2018-06-03T19:29:36.784Z,23.30
2018-06-03T19:32:05.003Z,23.30
2018-06-03T19:34:34.166Z,23.30
2018-06-03T19:37:02.370Z,23.10
2018-06-03T19:39:30.601Z,23.10
2018-06-03T19:41:58.905Z,23.00
2018-06-03T19:44:27.339Z,22.90
2018-06-03T19:46:55.561Z,22.80
2018-06-03T19:49:24.156Z,22.60
2018-06-03T19:51:52.361Z,22.50
2018-06-03T19:54:20.530Z,22.50
2018-06-03T19:56:48.742Z,22.40
2018-06-03T19:59:17.793Z,22.40
2018-06-03T20:01:46.034Z,22.40
2018-06-03T20:04:14.301Z,22.40
2018-06-03T20:06:43.965Z,22.30
2018-06-03T20:09:12.170Z,22.00
2018-06-03T20:11:40.362Z,21.80
2018-06-03T20:14:08.566Z,21.80
2018-06-03T20:16:36.770Z,21.60
2018-06-03T20:19:05.216Z,21.50
2018-06-03T20:21:33.425Z,21.50
2018-06-03T20:24:01.652Z,21.40
2018-06-03T20:26:29.880Z,21.30
2018-06-03T20:31:26.200Z,21.20
2018-06-03T20:33:55.452Z,21.20
2018-06-03T20:36:23.641Z,21.20
2018-06-03T20:38:51.842Z,21.30
2018-06-03T20:41:20.118Z,21.30
2018-06-03T20:43:48.428Z,21.30
2018-06-03T20:46:16.713Z,21.30
2018-06-03T20:48:44.897Z,21.30
2018-06-03T20:51:13.161Z,21.20
2018-06-03T20:53:41.410Z,21.00
2018-06-03T20:56:09.625Z,21.00
2018-06-03T20:58:37.885Z,21.00
2018-06-03T21:01:06.090Z,20.90
2018-06-03T21:03:34.288Z,20.90
2018-06-03T21:06:02.515Z,20.90
2018-06-03T21:08:30.717Z,20.90
2018-06-03T21:10:59.010Z,20.90
2018-06-03T21:13:27.278Z,20.80
2018-06-03T21:15:55.559Z,20.80
2018-06-03T21:18:23.785Z,20.80
2018-06-03T21:20:52.767Z,20.90
2018-06-03T21:23:21.796Z,20.80
2018-06-03T21:25:50.000Z,20.70
2018-06-03T21:28:18.209Z,20.70
2018-06-03T21:30:46.433Z,20.90
2018-06-03T21:33:14.657Z,20.80
2018-06-03T21:35:42.890Z,20.70
2018-06-03T21:38:11.070Z,20.70
2018-06-03T21:40:39.277Z,20.70
2018-06-03T21:43:07.541Z,20.70
2018-06-03T21:45:35.784Z,20.60
2018-06-03T21:48:04.034Z,20.50
2018-06-03T21:50:32.195Z,20.40
2018-06-03T21:53:00.461Z,20.20
2018-06-03T21:55:28.721Z,20.10
2018-06-03T21:57:56.986Z,20.10
2018-06-03T22:00:25.260Z,20.00
2018-06-03T22:02:53.433Z,20.00
2018-06-03T22:05:21.637Z,19.90
2018-06-03T22:07:49.846Z,20.00
2018-06-03T22:10:17.996Z,19.80
2018-06-03T22:12:46.237Z,19.70
2018-06-03T22:15:14.445Z,19.60
2018-06-03T22:17:42.691Z,19.40
2018-06-03T22:20:10.910Z,19.30
2018-06-03T22:22:39.078Z,19.20
2018-06-03T22:25:07.285Z,19.10
2018-06-03T22:27:35.465Z,19.10
2018-06-03T22:30:03.712Z,19.10
2018-06-03T22:32:31.933Z,19.10
2018-06-03T22:35:00.164Z,19.10
2018-06-03T22:37:28.451Z,19.20
2018-06-03T22:39:56.817Z,19.20
2018-06-03T22:42:25.080Z,19.20
2018-06-03T22:44:53.302Z,19.20
2018-06-03T22:47:21.465Z,19.10
2018-06-03T22:49:49.720Z,19.00
2018-06-03T22:52:17.898Z,19.00
2018-06-03T22:57:51.969Z,18.90
2018-06-03T23:00:27.173Z,18.90
2018-06-03T23:03:00.992Z,18.90
2018-06-03T23:05:29.278Z,18.90
2018-06-03T23:07:57.626Z,19.00
2018-06-03T23:10:25.910Z,19.00
2018-06-03T23:12:54.245Z,19.00
2018-06-03T23:15:22.446Z,18.80
2018-06-03T23:17:50.625Z,18.70
2018-06-03T23:20:18.829Z,18.70
2018-06-03T23:22:47.073Z,18.70
2018-06-03T23:25:15.306Z,18.60
2018-06-03T23:27:43.568Z,18.70
2018-06-03T23:30:11.877Z,18.60
2018-06-03T23:32:40.058Z,18.60
2018-06-03T23:35:08.252Z,18.60
2018-06-03T23:37:36.473Z,18.50
2018-06-03T23:40:05.052Z,18.50
2018-06-03T23:42:33.246Z,18.60
2018-06-03T23:45:01.493Z,18.60
2018-06-03T23:47:29.753Z,18.60
2018-06-03T23:49:58.133Z,18.40
2018-06-03T23:52:26.428Z,18.30
2018-06-03T23:54:55.016Z,18.30
2018-06-03T23:57:23.241Z,18.20
2018-06-03T23:59:51.472Z,18.30
